Time;durP1;ratioP1;P1;durP2;ratioP2;P2;SDS_P1;SDS_P2;PMS_P1;PMS_P2;Temp;Humidity;BMP_temperature;BMP_pressure;BME280_temperature;BME280_humidity;BME280_pressure;Samples;Min_cycle;Max_cycle;Signal;HPM_P1;HPM_P2
2023/04/23 00:02:14;;;;;;;16.30;11.10;;;10.70;99.90;;;;;;5031083;28;20190;-64
2023/04/23 00:04:51;;;;;;;15.23;11.77;;;10.80;99.90;;;;;;5031470;28;20167;-64
2023/04/23 00:07:19;;;;;;;14.27;12.10;;;10.70;99.90;;;;;;5030964;28;20195;-65
2023/04/23 00:09:46;;;;;;;14.80;11.03;;;10.80;99.90;;;;;;5031339;28;20229;-64
2023/04/23 00:12:12;;;;;;;15.03;12.40;;;10.80;99.90;;;;;;5035205;28;20589;-64
2023/04/23 00:14:38;;;;;;;15.20;12.23;;;10.90;99.90;;;;;;5035501;28;20609;-64
2023/04/23 00:17:03;;;;;;;12.77;11.33;;;10.90;99.90;;;;;;5034857;28;20223;-64
2023/04/23 00:19:29;;;;;;;15.20;11.97;;;10.90;99.90;;;;;;5035164;28;20700;-65
2023/04/23 00:21:54;;;;;;;11.57;10.23;;;10.90;99.90;;;;;;5035095;28;20178;-65
2023/04/23 00:24:20;;;;;;;13.00;11.40;;;10.90;99.90;;;;;;5035325;28;20204;-65
2023/04/23 00:26:46;;;;;;;12.87;11.57;;;10.90;99.90;;;;;;5034591;28;20179;-64
2023/04/23 00:29:11;;;;;;;13.37;11.30;;;10.80;99.90;;;;;;5034775;28;20222;-64
2023/04/23 00:31:37;;;;;;;13.27;11.80;;;10.80;99.90;;;;;;5034908;28;20199;-64
2023/04/23 00:34:03;;;;;;;14.93;11.80;;;10.80;99.90;;;;;;5035104;28;20182;-64
2023/04/23 00:36:29;;;;;;;13.17;11.73;;;10.80;99.90;;;;;;5034827;28;20183;-64
2023/04/23 00:38:54;;;;;;;11.50;10.40;;;10.80;99.90;;;;;;5033473;28;20583;-64
2023/04/23 00:41:20;;;;;;;15.70;12.17;;;10.80;99.90;;;;;;5034159;28;20175;-64
2023/04/23 00:43:47;;;;;;;12.53;11.07;;;10.80;99.90;;;;;;5034981;28;20588;-65
2023/04/23 00:46:13;;;;;;;16.17;12.50;;;10.70;99.90;;;;;;5034066;28;20167;-63
2023/04/23 00:48:40;;;;;;;13.00;11.73;;;10.70;99.90;;;;;;5034197;28;20203;-64
2023/04/23 00:51:05;;;;;;;14.60;12.23;;;10.70;99.90;;;;;;5034266;28;20215;-63
2023/04/23 00:53:32;;;;;;;14.73;11.73;;;10.70;99.90;;;;;;5032753;28;20218;-63
2023/04/23 00:56:00;;;;;;;13.03;11.70;;;10.70;99.90;;;;;;5034638;28;20183;-64
2023/04/23 00:58:26;;;;;;;15.90;12.27;;;10.60;99.90;;;;;;5034330;28;20210;-64
2023/04/23 01:00:52;;;;;;;14.97;12.43;;;10.60;99.90;;;;;;5034479;28;20262;-64
2023/04/23 01:03:20;;;;;;;13.17;11.37;;;10.60;99.90;;;;;;5034387;28;20266;-64
2023/04/23 01:05:47;;;;;;;15.80;13.17;;;10.60;99.90;;;;;;5033365;28;20179;-63
2023/04/23 01:08:15;;;;;;;16.50;12.50;;;10.60;99.90;;;;;;5034135;28;20234;-64
2023/04/23 01:10:42;;;;;;;15.53;12.83;;;10.60;99.90;;;;;;5034133;28;20181;-64
2023/04/23 01:13:08;;;;;;;16.47;13.23;;;10.60;99.90;;;;;;5034341;28;20543;-64
2023/04/23 01:15:34;;;;;;;20.40;13.00;;;10.50;99.90;;;;;;5034224;28;20187;-64
2023/04/23 01:18:00;;;;;;;13.40;12.10;;;10.50;99.90;;;;;;5034498;28;20195;-63
2023/04/23 01:20:26;;;;;;;13.90;12.40;;;10.40;99.90;;;;;;5033749;28;20230;-64
2023/04/23 01:22:52;;;;;;;13.80;12.23;;;10.40;99.90;;;;;;5033955;28;20175;-64
2023/04/23 01:25:17;;;;;;;14.57;12.60;;;10.40;99.90;;;;;;5033851;28;20191;-64
2023/04/23 01:27:43;;;;;;;12.80;11.50;;;10.30;99.90;;;;;;5034114;28;20237;-64
2023/04/23 01:30:10;;;;;;;12.57;11.27;;;10.30;99.90;;;;;;5033628;28;20235;-64
2023/04/23 01:32:37;;;;;;;15.30;11.97;;;10.20;99.90;;;;;;5034322;28;20172;-64
2023/04/23 01:35:03;;;;;;;12.97;11.50;;;10.20;99.90;;;;;;5033960;28;20186;-64
2023/04/23 01:37:30;;;;;;;15.60;11.27;;;10.20;99.90;;;;;;5033924;28;20188;-64
2023/04/23 01:39:56;;;;;;;14.37;12.07;;;10.20;99.90;;;;;;5033311;28;20210;-64
2023/04/23 01:42:22;;;;;;;14.90;11.73;;;10.10;99.90;;;;;;5033927;28;20571;-64
2023/04/23 01:44:48;;;;;;;13.47;11.90;;;10.10;99.90;;;;;;5033558;28;20182;-65
2023/04/23 01:47:14;;;;;;;14.07;11.93;;;10.10;99.90;;;;;;5033690;28;20167;-64
2023/04/23 01:49:40;;;;;;;14.67;11.87;;;10.10;99.90;;;;;;5033438;28;20278;-64
2023/04/23 01:52:05;;;;;;;13.43;10.60;;;10.00;99.90;;;;;;5033599;28;20700;-65
2023/04/23 01:54:31;;;;;;;13.67;12.27;;;10.00;99.90;;;;;;5033503;28;20218;-64
2023/04/23 01:56:57;;;;;;;15.20;12.43;;;9.90;99.90;;;;;;5033148;28;20246;-64
2023/04/23 01:59:23;;;;;;;16.77;12.73;;;9.90;99.90;;;;;;5032960;28;20230;-65
2023/04/23 02:01:49;;;;;;;17.40;12.33;;;9.80;99.90;;;;;;5033623;28;20183;-65
2023/04/23 02:04:16;;;;;;;16.40;13.30;;;9.80;99.90;;;;;;5033239;28;20270;-64
2023/04/23 02:06:45;;;;;;;15.57;12.37;;;9.80;99.90;;;;;;5033493;28;20175;-64
2023/04/23 02:09:11;;;;;;;14.80;12.30;;;9.80;99.90;;;;;;5032814;28;20203;-65
2023/04/23 02:11:37;;;;;;;18.23;12.03;;;9.70;99.90;;;;;;5031594;28;20179;-64
2023/04/23 02:14:04;;;;;;;17.90;12.90;;;9.70;99.90;;;;;;5033189;28;20238;-64
2023/04/23 02:16:30;;;;;;;16.57;11.80;;;9.60;99.90;;;;;;5033361;28;20744;-64
2023/04/23 02:18:56;;;;;;;13.83;12.10;;;9.60;99.90;;;;;;5032756;28;20207;-64
2023/04/23 02:21:24;;;;;;;14.83;11.97;;;9.50;99.90;;;;;;5032747;28;20183;-65
2023/04/23 02:23:50;;;;;;;15.20;12.83;;;9.40;99.90;;;;;;5032906;28;20276;-64
2023/04/23 02:26:17;;;;;;;13.47;12.10;;;9.40;99.90;;;;;;5033170;28;20988;-64
2023/04/23 02:28:43;;;;;;;17.30;13.30;;;9.40;99.90;;;;;;5032537;28;20293;-65
2023/04/23 02:31:09;;;;;;;14.93;11.53;;;9.40;99.90;;;;;;5032555;28;20270;-64
2023/04/23 02:33:34;;;;;;;12.93;11.63;;;9.40;99.90;;;;;;5032018;28;20179;-64
2023/04/23 02:36:00;;;;;;;16.00;12.93;;;9.30;99.90;;;;;;5032787;28;20167;-64
2023/04/23 02:38:26;;;;;;;14.27;11.70;;;9.30;99.90;;;;;;5032618;28;20207;-64
2023/04/23 02:40:51;;;;;;;14.93;13.37;;;9.30;99.90;;;;;;5032409;28;20229;-64
2023/04/23 02:43:17;;;;;;;19.27;12.30;;;9.40;99.90;;;;;;5032413;28;20180;-65
2023/04/23 02:45:43;;;;;;;16.67;13.20;;;9.40;99.90;;;;;;5032760;28;20175;-64
2023/04/23 02:48:10;;;;;;;19.03;14.20;;;9.40;99.90;;;;;;5032271;28;20207;-64
2023/04/23 02:50:38;;;;;;;19.90;13.37;;;9.50;99.90;;;;;;5032419;28;20590;-65
2023/04/23 02:53:04;;;;;;;16.00;13.13;;;9.50;99.90;;;;;;5032003;28;20194;-65
2023/04/23 02:55:30;;;;;;;16.97;13.63;;;9.50;99.90;;;;;;5032162;28;20171;-65
2023/04/23 02:57:57;;;;;;;21.23;16.27;;;9.50;99.90;;;;;;5032510;28;20191;-64
2023/04/23 03:00:23;;;;;;;18.77;14.33;;;9.60;99.90;;;;;;5031278;28;20211;-65
2023/04/23 03:02:49;;;;;;;19.57;13.40;;;9.60;99.90;;;;;;5032028;28;20183;-65
2023/04/23 03:05:15;;;;;;;21.53;14.07;;;9.60;99.90;;;;;;5032263;28;20175;-64
2023/04/23 03:07:40;;;;;;;19.27;15.43;;;9.60;99.90;;;;;;5030674;28;20298;-65
2023/04/23 03:10:07;;;;;;;21.33;15.93;;;9.60;99.90;;;;;;5031775;28;20703;-64
2023/04/23 03:12:32;;;;;;;21.23;15.97;;;9.60;99.90;;;;;;5032195;28;20183;-65
2023/04/23 03:14:58;;;;;;;21.37;14.03;;;9.60;99.90;;;;;;5032089;28;20558;-64
2023/04/23 03:17:24;;;;;;;23.73;15.73;;;9.60;99.90;;;;;;5032011;28;20193;-65
2023/04/23 03:19:50;;;;;;;19.83;16.07;;;9.60;99.90;;;;;;5031722;28;20680;-65
2023/04/23 03:22:16;;;;;;;21.13;14.50;;;9.60;99.90;;;;;;5031657;28;20196;-65
2023/04/23 03:24:42;;;;;;;18.83;14.40;;;9.60;99.90;;;;;;5032203;28;20167;-65
2023/04/23 03:27:08;;;;;;;21.70;15.53;;;9.60;99.90;;;;;;5031550;28;20186;-65
2023/04/23 03:29:33;;;;;;;23.83;17.43;;;9.70;99.90;;;;;;5032004;28;20614;-65
2023/04/23 03:31:59;;;;;;;27.37;17.27;;;9.70;99.90;;;;;;5031416;28;20191;-65
2023/04/23 03:34:24;;;;;;;25.57;16.50;;;9.70;99.90;;;;;;5031836;28;20262;-64
2023/04/23 03:36:50;;;;;;;30.23;17.63;;;9.70;99.90;;;;;;5032044;28;20199;-64
2023/04/23 03:39:16;;;;;;;29.80;17.03;;;9.70;99.90;;;;;;5031323;28;20217;-64
2023/04/23 03:41:42;;;;;;;25.60;18.03;;;9.80;99.90;;;;;;5031585;28;20176;-64
2023/04/23 03:44:08;;;;;;;24.60;16.87;;;9.80;99.90;;;;;;5031500;28;20179;-63
2023/04/23 03:46:33;;;;;;;27.07;18.43;;;9.80;99.90;;;;;;5031416;28;20542;-65
2023/04/23 03:48:59;;;;;;;26.43;16.10;;;9.80;99.90;;;;;;5031324;28;20568;-64
2023/04/23 03:51:26;;;;;;;22.07;15.47;;;9.80;99.90;;;;;;5030881;28;20219;-65
2023/04/23 03:53:51;;;;;;;25.20;16.40;;;9.80;99.90;;;;;;5031555;28;20549;-65
2023/04/23 03:56:17;;;;;;;25.77;16.67;;;9.80;99.90;;;;;;5031238;28;20187;-64
2023/04/23 03:58:43;;;;;;;22.43;16.70;;;9.90;99.90;;;;;;5031401;28;20269;-64
2023/04/23 04:01:08;;;;;;;25.53;16.77;;;9.90;99.90;;;;;;5030775;28;20179;-64
2023/04/23 04:03:34;;;;;;;24.67;16.53;;;9.90;99.90;;;;;;5031472;28;20191;-64
2023/04/23 04:06:00;;;;;;;26.87;18.27;;;10.00;99.90;;;;;;5031048;28;20186;-64
2023/04/23 04:08:25;;;;;;;25.53;17.73;;;10.00;99.90;;;;;;5031247;28;20677;-64
2023/04/23 04:10:51;;;;;;;22.40;16.47;;;10.00;99.90;;;;;;5030737;28;20175;-64
2023/04/23 04:13:17;;;;;;;27.37;16.90;;;10.00;99.90;;;;;;5031222;28;20207;-64
2023/04/23 04:15:42;;;;;;;28.07;15.97;;;10.00;99.90;;;;;;5031235;28;20602;-65
2023/04/23 04:18:08;;;;;;;20.93;16.27;;;10.00;99.90;;;;;;5031059;28;20227;-65
2023/04/23 04:20:34;;;;;;;23.23;15.83;;;10.00;99.90;;;;;;5030703;28;20202;-64
2023/04/23 04:22:59;;;;;;;23.30;16.03;;;10.00;99.90;;;;;;5031140;28;20171;-64
2023/04/23 04:25:27;;;;;;;31.30;17.20;;;10.00;99.90;;;;;;5030974;28;20190;-64
2023/04/23 04:27:53;;;;;;;23.90;16.50;;;10.00;99.90;;;;;;5030971;28;20668;-64
2023/04/23 04:30:20;;;;;;;23.80;16.87;;;10.00;99.90;;;;;;5030850;28;20186;-64
2023/04/23 04:32:46;;;;;;;29.73;16.97;;;10.10;99.90;;;;;;5031257;28;20172;-64
2023/04/23 04:35:13;;;;;;;21.97;16.73;;;10.10;99.90;;;;;;5030818;28;20641;-64
2023/04/23 04:37:38;;;;;;;25.60;17.43;;;10.10;99.90;;;;;;5031413;28;20191;-64
2023/04/23 04:40:06;;;;;;;25.23;15.90;;;10.10;99.90;;;;;;5030658;28;20210;-64
2023/04/23 04:42:32;;;;;;;30.37;18.20;;;10.20;99.90;;;;;;5031035;28;20178;-65
2023/04/23 04:44:58;;;;;;;26.50;18.57;;;10.20;99.90;;;;;;5030943;28;20175;-65
2023/04/23 04:47:24;;;;;;;32.37;18.13;;;10.20;99.90;;;;;;5030929;28;20175;-65
2023/04/23 04:49:50;;;;;;;26.53;18.40;;;10.20;99.90;;;;;;5030438;28;20263;-64
2023/04/23 04:52:16;;;;;;;24.03;16.23;;;10.30;99.90;;;;;;5031100;28;20262;-65
2023/04/23 04:54:42;;;;;;;27.53;18.30;;;10.30;99.90;;;;;;5030999;28;20189;-64
2023/04/23 04:57:08;;;;;;;25.33;17.37;;;10.40;99.90;;;;;;5033154;28;20250;-65
2023/04/23 04:59:33;;;;;;;25.23;17.40;;;10.40;99.90;;;;;;5033998;28;20290;-64
2023/04/23 05:01:59;;;;;;;27.87;17.77;;;10.50;99.90;;;;;;5034578;28;20241;-63
2023/04/23 05:04:25;;;;;;;25.60;16.63;;;10.50;99.90;;;;;;5034632;28;20183;-64
2023/04/23 05:06:50;;;;;;;24.57;18.10;;;10.60;99.90;;;;;;5034648;28;20247;-64
2023/04/23 05:09:16;;;;;;;24.23;16.97;;;10.60;99.90;;;;;;5033908;28;20203;-64
2023/04/23 05:11:42;;;;;;;25.63;16.30;;;10.60;99.90;;;;;;5034147;28;20167;-64
2023/04/23 05:14:07;;;;;;;26.23;17.50;;;10.60;99.90;;;;;;5034262;28;20542;-64
2023/04/23 05:16:33;;;;;;;25.80;17.10;;;10.70;99.90;;;;;;5034269;28;20187;-64
2023/04/23 05:18:59;;;;;;;23.57;17.60;;;10.70;99.90;;;;;;5033999;28;20211;-63
2023/04/23 05:21:26;;;;;;;29.23;17.93;;;10.70;99.90;;;;;;5033718;28;20261;-64
2023/04/23 05:23:52;;;;;;;23.37;16.70;;;10.80;99.90;;;;;;5034298;28;20203;-64
2023/04/23 05:26:18;;;;;;;25.17;17.57;;;10.80;99.90;;;;;;5034035;28;20266;-64
2023/04/23 05:28:44;;;;;;;28.50;17.20;;;10.90;99.90;;;;;;5034226;28;20229;-64
2023/04/23 05:31:10;;;;;;;24.37;16.50;;;10.90;99.90;;;;;;5033231;28;20183;-64
2023/04/23 05:33:36;;;;;;;23.87;15.50;;;11.00;99.90;;;;;;5034115;28;20246;-64
2023/04/23 05:36:01;;;;;;;27.07;16.03;;;11.00;99.90;;;;;;5033701;28;20265;-64
2023/04/23 05:38:27;;;;;;;24.47;16.10;;;11.10;99.90;;;;;;5033951;28;20195;-63
2023/04/23 05:40:52;;;;;;;25.90;17.47;;;11.20;99.90;;;;;;5033232;28;20576;-64
2023/04/23 05:43:18;;;;;;;23.47;16.27;;;11.30;99.90;;;;;;5032229;28;20194;-64
2023/04/23 05:45:44;;;;;;;25.03;14.73;;;11.30;99.90;;;;;;5033669;28;20167;-64
2023/04/23 05:48:09;;;;;;;21.67;16.57;;;11.40;99.90;;;;;;5033480;28;20276;-64
2023/04/23 05:50:35;;;;;;;18.30;14.27;;;11.60;99.90;;;;;;5033484;28;20691;-64
2023/04/23 05:53:00;;;;;;;22.77;14.93;;;11.70;99.90;;;;;;5033181;28;20172;-64
2023/04/23 05:55:26;;;;;;;25.23;15.07;;;11.80;99.90;;;;;;5033568;28;20175;-64
2023/04/23 05:57:52;;;;;;;22.97;16.43;;;11.90;99.90;;;;;;5031998;28;20680;-64
2023/04/23 06:00:17;;;;;;;21.47;14.97;;;11.90;99.90;;;;;;5032733;28;20754;-64
2023/04/23 06:02:43;;;;;;;17.80;14.07;;;12.00;99.90;;;;;;5033239;28;20634;-64
2023/04/23 06:05:09;;;;;;;18.43;14.70;;;12.10;99.90;;;;;;5033101;28;20178;-64
2023/04/23 06:07:35;;;;;;;19.33;13.53;;;12.20;99.90;;;;;;5031659;28;20207;-64
2023/04/23 06:10:01;;;;;;;22.37;14.87;;;12.20;99.90;;;;;;5032838;28;20225;-64
2023/04/23 06:12:27;;;;;;;19.73;12.93;;;12.30;99.90;;;;;;5032850;28;20605;-64
2023/04/23 06:14:53;;;;;;;17.33;13.87;;;12.30;99.90;;;;;;5033165;28;20179;-64
2023/04/23 06:17:18;;;;;;;16.50;12.97;;;12.40;99.90;;;;;;5032525;28;20183;-64
2023/04/23 06:19:44;;;;;;;18.20;12.40;;;12.50;99.90;;;;;;5032914;28;20202;-64
2023/04/23 06:22:09;;;;;;;16.23;12.43;;;12.60;99.90;;;;;;5032654;28;20578;-64
2023/04/23 06:24:35;;;;;;;13.27;11.87;;;12.70;99.90;;;;;;5032871;28;20171;-64
2023/04/23 06:27:01;;;;;;;16.90;11.57;;;12.90;99.90;;;;;;5032409;28;20187;-64
2023/04/23 06:29:27;;;;;;;13.63;11.80;;;13.10;99.90;;;;;;5032423;28;20400;-62
2023/04/23 06:31:56;;;;;;;13.57;11.90;;;13.30;99.90;;;;;;5032692;28;20188;-64
2023/04/23 06:34:22;;;;;;;16.03;11.67;;;13.50;99.90;;;;;;5032660;28;20175;-64
2023/04/23 06:36:49;;;;;;;11.60;10.50;;;13.70;99.90;;;;;;5032565;28;20266;-64
2023/04/23 06:39:15;;;;;;;12.73;11.07;;;13.90;99.90;;;;;;5031953;28;20211;-64
2023/04/23 06:41:40;;;;;;;12.00;10.90;;;14.00;99.90;;;;;;5032486;28;20180;-64
2023/04/23 06:44:06;;;;;;;10.97;10.03;;;14.00;99.90;;;;;;5032462;28;20173;-64
2023/04/23 06:46:32;;;;;;;10.73;9.70;;;14.10;99.90;;;;;;5031192;28;20523;-64
2023/04/23 06:48:57;;;;;;;10.03;9.03;;;14.20;99.90;;;;;;5031676;28;20199;-64
2023/04/23 06:51:26;;;;;;;8.53;7.73;;;14.20;99.90;;;;;;5031055;28;20175;-64
2023/04/23 06:53:52;;;;;;;9.63;8.67;;;14.30;99.90;;;;;;5032153;28;20179;-64
2023/04/23 06:56:17;;;;;;;11.00;9.93;;;14.30;99.90;;;;;;5032071;28;20191;-64
2023/04/23 06:58:43;;;;;;;9.17;8.43;;;14.40;99.90;;;;;;5032220;28;20218;-64
2023/04/23 07:01:10;;;;;;;9.03;8.27;;;14.60;99.90;;;;;;5031525;28;20175;-64
2023/04/23 07:03:36;;;;;;;9.57;8.47;;;14.80;99.90;;;;;;5032143;28;20175;-64
2023/04/23 07:06:01;;;;;;;8.63;7.83;;;15.20;99.90;;;;;;5031535;28;20183;-64
2023/04/23 07:08:27;;;;;;;8.97;8.17;;;15.70;99.90;;;;;;5032166;28;20191;-64
2023/04/23 07:10:52;;;;;;;8.97;8.23;;;16.10;99.90;;;;;;5031336;28;20187;-64
2023/04/23 07:13:18;;;;;;;8.67;7.60;;;16.50;99.90;;;;;;5031634;28;20206;-64
2023/04/23 07:15:44;;;;;;;7.97;7.27;;;16.80;99.90;;;;;;5032014;28;20649;-64
2023/04/23 07:18:09;;;;;;;8.13;7.43;;;17.00;90.40;;;;;;5031505;28;20206;-64
2023/04/23 07:20:35;;;;;;;8.47;7.80;;;17.00;91.20;;;;;;5030902;28;20272;-64
2023/04/23 07:23:02;;;;;;;7.40;6.70;;;16.90;84.50;;;;;;5031243;28;20238;-64
2023/04/23 07:25:29;;;;;;;6.73;6.23;;;17.00;85.90;;;;;;5031983;28;20646;-64
2023/04/23 07:27:55;;;;;;;5.80;5.40;;;17.00;42.10;;;;;;5031323;28;20215;-64
2023/04/23 07:30:23;;;;;;;5.93;5.40;;;16.80;22.60;;;;;;5031238;28;20190;-64
2023/04/23 07:32:48;;;;;;;6.00;5.60;;;16.90;33.40;;;;;;5031590;28;20233;-64
2023/04/23 07:35:14;;;;;;;5.40;5.00;;;17.00;1.00;;;;;;5031363;28;20180;-64
2023/04/23 07:37:40;;;;;;;6.50;5.93;;;17.10;1.00;;;;;;5031346;28;20191;-63
2023/04/23 07:40:06;;;;;;;6.60;6.00;;;17.20;1.00;;;;;;5031164;28;20261;-64
2023/04/23 07:42:32;;;;;;;5.47;5.03;;;17.30;1.00;;;;;;5031399;28;20195;-64
2023/04/23 07:44:57;;;;;;;6.03;4.33;;;17.60;1.00;;;;;;5031323;28;20222;-65
2023/04/23 07:47:23;;;;;;;8.97;4.53;;;18.00;1.00;;;;;;5030933;28;20266;-65
2023/04/23 07:49:49;;;;;;;7.28;4.72;;;18.50;99.90;;;;;;5030806;28;20183;-64
2023/04/23 07:52:15;;;;;;;4.30;4.00;;;18.70;99.90;;;;;;5031019;28;20557;-64
2023/04/23 07:54:41;;;;;;;5.18;4.10;;;19.00;99.90;;;;;;5031328;28;20175;-63
2023/04/23 07:57:07;;;;;;;4.82;4.53;;;19.60;99.90;;;;;;5030750;28;20199;-65
2023/04/23 07:59:32;;;;;;;4.32;4.13;;;20.20;99.90;;;;;;5030962;28;20215;-64
2023/04/23 08:01:58;;;;;;;4.82;4.43;;;20.70;99.90;;;;;;5030984;28;20649;-65
2023/04/23 08:04:24;;;;;;;3.72;3.53;;;21.30;99.90;;;;;;5031267;28;20544;-65
2023/04/23 08:06:50;;;;;;;4.85;4.30;;;21.70;99.90;;;;;;5030771;28;20170;-65
2023/04/23 08:09:15;;;;;;;4.03;3.72;;;21.70;99.90;;;;;;5030601;28;20195;-65
2023/04/23 08:11:41;;;;;;;7.93;3.97;;;21.50;99.90;;;;;;5031044;28;20178;-65
2023/04/23 08:14:06;;;;;;;4.80;4.50;;;21.00;99.90;;;;;;5030913;28;20179;-65
2023/04/23 08:16:32;;;;;;;4.07;3.78;;;20.60;99.90;;;;;;5030925;28;20187;-65
2023/04/23 08:18:58;;;;;;;3.87;3.67;;;20.10;99.90;;;;;;5030809;28;20265;-65
2023/04/23 08:21:25;;;;;;;4.20;4.00;;;19.90;99.90;;;;;;5030310;28;20202;-65
2023/04/23 08:23:52;;;;;;;4.47;4.00;;;19.90;99.90;;;;;;5030947;28;20164;-65
2023/04/23 08:26:17;;;;;;;4.65;4.35;;;20.00;99.90;;;;;;5030635;28;20183;-65
2023/04/23 08:28:44;;;;;;;5.20;4.95;;;19.80;99.90;;;;;;5031009;28;20707;-65
2023/04/23 08:31:10;;;;;;;4.30;4.00;;;19.70;99.90;;;;;;5030978;28;20277;-65
2023/04/23 08:33:35;;;;;;;4.28;4.07;;;19.90;99.90;;;;;;5035190;28;20308;-64
2023/04/23 08:36:01;;;;;;;4.32;3.80;;;20.20;99.90;;;;;;5034594;28;20714;-65
2023/04/23 08:38:27;;;;;;;3.83;3.63;;;20.40;99.90;;;;;;5034915;28;20244;-64
2023/04/23 08:40:56;;;;;;;4.00;3.80;;;20.60;99.90;;;;;;5034268;28;20207;-65
2023/04/23 08:43:37;;;;;;;3.97;3.78;;;20.80;99.90;;;;;;5034571;28;20175;-65
2023/04/23 08:46:03;;;;;;;4.88;4.47;;;21.00;99.90;;;;;;5034444;28;20481;-65
2023/04/23 08:48:30;;;;;;;4.25;3.90;;;20.90;99.90;;;;;;5034753;28;20227;-65
2023/04/23 08:50:57;;;;;;;4.20;3.90;;;20.60;99.90;;;;;;5034257;28;20183;-65
2023/04/23 08:53:27;;;;;;;4.20;3.90;;;20.50;99.90;;;;;;5034600;28;20346;-65
2023/04/23 08:55:55;;;;;;;4.60;4.20;;;20.50;99.90;;;;;;5034368;28;20237;-65
2023/04/23 08:58:21;;;;;;;3.90;3.70;;;20.70;99.90;;;;;;5034526;28;20223;-65
2023/04/23 09:00:47;;;;;;;3.80;3.60;;;21.10;99.90;;;;;;5033543;28;20281;-64
2023/04/23 09:03:19;;;;;;;4.50;4.30;;;21.40;99.90;;;;;;5033613;28;20172;-65
2023/04/23 09:05:45;;;;;;;4.28;3.97;;;21.60;99.90;;;;;;5034520;28;20172;-64
2023/04/23 09:08:11;;;;;;;4.13;3.88;;;21.90;99.90;;;;;;5034180;28;20218;-65
2023/04/23 09:10:40;;;;;;;3.45;3.25;;;22.10;99.90;;;;;;5034139;28;20172;-65
2023/04/23 09:13:06;;;;;;;3.28;3.08;;;22.30;99.90;;;;;;5033951;28;20184;-65
2023/04/23 09:15:34;;;;;;;3.10;2.90;;;22.70;99.90;;;;;;5034469;28;20164;-65
2023/04/23 09:18:00;;;;;;;3.10;3.00;;;22.90;99.90;;;;;;5033658;28;20203;-65
2023/04/23 09:20:26;;;;;;;4.32;3.30;;;23.20;99.90;;;;;;5033937;28;20244;-65
2023/04/23 09:22:52;;;;;;;3.10;2.90;;;23.20;99.90;;;;;;5033930;28;20184;-65
2023/04/23 09:25:19;;;;;;;3.03;2.83;;;23.00;99.90;;;;;;5034052;28;20274;-65
2023/04/23 09:27:47;;;;;;;4.32;3.05;;;22.70;99.90;;;;;;5033671;28;20285;-63
2023/04/23 09:30:13;;;;;;;4.50;4.30;;;22.20;99.90;;;;;;5033908;28;20172;-65
2023/04/23 09:32:41;;;;;;;4.20;3.90;;;21.50;99.90;;;;;;5033535;28;20286;-65
2023/04/23 09:35:12;;;;;;;3.90;3.60;;;20.90;99.90;;;;;;5029781;28;20219;-64
2023/04/23 09:37:41;;;;;;;4.37;4.17;;;20.50;99.90;;;;;;5027996;28;20215;-65
2023/04/23 09:40:08;;;;;;;3.92;3.72;;;20.30;99.90;;;;;;5029020;28;20199;-65
2023/04/23 09:42:35;;;;;;;4.00;3.70;;;20.20;99.90;;;;;;5029429;28;20199;-65
2023/04/23 09:45:11;;;;;;;3.87;3.67;;;20.00;99.90;;;;;;5030082;28;20178;-66
2023/04/23 09:47:57;;;;;;;4.93;4.40;;;19.90;99.90;;;;;;5029952;28;20703;-65
2023/04/23 09:50:35;;;;;;;3.92;3.72;;;19.80;99.90;;;;;;5030111;28;20237;-65
2023/04/23 09:53:01;;;;;;;4.68;4.28;;;19.70;99.90;;;;;;5010429;28;20748;-65
2023/04/23 09:55:37;;;;;;;4.55;3.58;;;19.70;99.90;;;;;;5010413;28;20181;-65
2023/04/23 09:58:10;;;;;;;9.60;4.35;;;19.90;99.90;;;;;;5030124;28;20276;-65
2023/04/23 10:00:37;;;;;;;3.92;3.72;;;20.10;99.90;;;;;;5029972;28;20239;-65
2023/04/23 10:03:05;;;;;;;3.72;3.53;;;20.40;99.90;;;;;;5030203;28;20619;-65
2023/04/23 10:05:31;;;;;;;3.80;3.53;;;20.70;99.90;;;;;;5031261;28;20180;-66
2023/04/23 10:07:57;;;;;;;3.95;3.08;;;20.90;99.90;;;;;;5033138;28;20775;-66
2023/04/23 10:10:23;;;;;;;3.80;3.58;;;21.20;99.90;;;;;;5032190;28;20332;-66
2023/04/23 10:12:52;;;;;;;3.40;3.20;;;21.20;99.90;;;;;;5033370;28;20179;-64
2023/04/23 10:15:18;;;;;;;3.10;2.90;;;21.30;99.90;;;;;;5032593;28;20199;-65
2023/04/23 10:17:46;;;;;;;3.83;3.53;;;21.30;99.90;;;;;;5032875;28;20191;-65
2023/04/23 10:20:13;;;;;;;5.05;3.10;;;21.40;99.90;;;;;;5032397;28;20617;-65
2023/04/23 10:22:42;;;;;;;3.40;3.30;;;21.70;99.90;;;;;;5032878;28;20174;-66
2023/04/23 10:25:10;;;;;;;3.47;3.17;;;22.20;99.90;;;;;;5032481;28;20179;-65
2023/04/23 10:27:42;;;;;;;3.33;3.13;;;22.60;99.90;;;;;;5032514;28;20613;-65
2023/04/23 10:30:10;;;;;;;3.08;2.88;;;22.90;99.90;;;;;;5032362;28;20183;-66
2023/04/23 10:32:37;;;;;;;3.03;2.83;;;23.20;99.90;;;;;;5032643;28;20175;-66
2023/04/23 10:35:03;;;;;;;3.20;2.90;;;23.00;99.90;;;;;;5032700;28;20613;-66
2023/04/23 10:37:30;;;;;;;3.22;3.03;;;22.60;99.90;;;;;;5031315;28;20183;-65
2023/04/23 10:40:03;;;;;;;3.03;2.83;;;22.20;99.90;;;;;;5030606;28;20214;-65
2023/04/23 10:42:29;;;;;;;3.60;3.30;;;21.80;99.90;;;;;;5032300;28;20692;-66
2023/04/23 10:44:57;;;;;;;3.15;2.88;;;21.40;99.90;;;;;;5032414;28;20171;-65
2023/04/23 10:47:23;;;;;;;3.83;3.63;;;21.20;99.90;;;;;;5032313;28;20175;-65
2023/04/23 10:49:50;;;;;;;4.43;3.63;;;20.90;99.90;;;;;;5031638;28;20621;-65
2023/04/23 10:52:17;;;;;;;3.65;3.45;;;20.80;99.90;;;;;;5032318;28;20676;-65
2023/04/23 10:54:55;;;;;;;4.10;3.80;;;20.40;99.90;;;;;;5031563;28;20179;-66
2023/04/23 10:57:21;;;;;;;4.43;4.20;;;20.30;99.90;;;;;;5032130;28;20172;-65
2023/04/23 10:59:57;;;;;;;4.32;4.00;;;20.40;99.90;;;;;;5031464;28;20203;-65
2023/04/23 11:02:24;;;;;;;3.58;3.38;;;20.90;99.90;;;;;;5032704;28;20641;-66
2023/04/23 11:04:57;;;;;;;3.55;3.35;;;21.60;99.90;;;;;;5031863;28;20179;-66
2023/04/23 11:07:30;;;;;;;4.25;3.85;;;22.10;99.90;;;;;;5031513;28;20210;-65
2023/04/23 11:09:59;;;;;;;3.33;3.13;;;22.10;99.90;;;;;;5031657;28;20167;-66
2023/04/23 11:12:28;;;;;;;3.47;3.20;;;21.60;99.90;;;;;;5029737;28;20179;-66
2023/04/23 11:14:55;;;;;;;3.70;3.50;;;21.20;99.90;;;;;;5032295;28;20179;-65
2023/04/23 11:17:22;;;;;;;5.68;5.28;;;20.90;99.90;;;;;;5031539;28;20203;-65
2023/04/23 11:20:10;;;;;;;3.63;3.33;;;20.70;99.90;;;;;;5031257;28;20214;-66
2023/04/23 11:22:37;;;;;;;3.73;3.53;;;20.30;99.90;;;;;;5031546;28;20219;-65
2023/04/23 11:25:07;;;;;;;3.37;3.17;;;20.10;99.90;;;;;;5031763;28;20263;-65
2023/04/23 11:27:33;;;;;;;3.88;3.55;;;20.00;99.90;;;;;;5031283;28;20214;-65
2023/04/23 11:29:58;;;;;;;3.47;3.28;;;20.10;99.90;;;;;;5031114;28;20203;-65
2023/04/23 11:32:26;;;;;;;3.65;3.35;;;20.40;99.90;;;;;;5031210;28;20245;-65
2023/04/23 11:34:52;;;;;;;3.38;3.15;;;20.70;99.90;;;;;;5031719;28;20229;-65
2023/04/23 11:37:18;;;;;;;3.60;3.30;;;20.90;99.90;;;;;;5030938;28;20179;-66
2023/04/23 11:39:46;;;;;;;3.33;3.13;;;21.10;99.90;;;;;;5030776;28;20256;-64
2023/04/23 11:42:16;;;;;;;3.70;3.50;;;21.30;99.90;;;;;;5031536;28;20703;-67
2023/04/23 11:44:43;;;;;;;4.30;4.00;;;21.40;99.90;;;;;;5028193;28;20202;-66
2023/04/23 11:47:17;;;;;;;4.18;3.88;;;21.50;99.90;;;;;;5031182;28;20649;-64
2023/04/23 11:49:43;;;;;;;4.80;4.40;;;21.50;99.90;;;;;;5031115;28;20190;-65
2023/04/23 11:52:10;;;;;;;4.25;3.95;;;21.60;99.90;;;;;;5031160;28;20596;-66
2023/04/23 11:54:38;;;;;;;3.55;3.25;;;21.80;99.90;;;;;;5030099;28;20182;-65
2023/04/23 11:57:04;;;;;;;4.18;3.05;;;22.10;99.90;;;;;;5031215;28;20163;-65
2023/04/23 11:59:30;;;;;;;2.78;2.50;;;22.30;99.90;;;;;;5030659;28;20203;-65
2023/04/23 12:01:57;;;;;;;2.80;2.70;;;22.30;99.90;;;;;;5031088;28;20180;-65
2023/04/23 12:04:25;;;;;;;4.00;2.95;;;22.30;99.90;;;;;;5030852;28;20285;-65
2023/04/23 12:06:52;;;;;;;3.55;2.95;;;22.40;99.90;;;;;;5031239;28;20551;-65
2023/04/23 12:09:21;;;;;;;3.08;2.85;;;22.70;99.90;;;;;;5030304;28;20195;-66
2023/04/23 12:11:49;;;;;;;3.60;2.60;;;22.90;99.90;;;;;;5031239;28;20282;-65
2023/04/23 12:14:15;;;;;;;2.50;2.40;;;23.20;99.90;;;;;;5030573;28;20228;-65
2023/04/23 12:16:43;;;;;;;2.88;2.63;;;23.50;99.90;;;;;;5029256;28;20207;-65
2023/04/23 12:19:15;;;;;;;2.92;2.78;;;23.50;99.90;;;;;;5030614;28;20200;-65
2023/04/23 12:21:48;;;;;;;3.25;3.05;;;23.60;99.90;;;;;;5030478;28;20198;-66
2023/04/23 12:24:14;;;;;;;5.60;2.80;;;23.70;99.90;;;;;;5031105;28;20179;-65
2023/04/23 12:26:41;;;;;;;2.60;2.50;;;23.80;99.90;;;;;;5030928;28;20187;-65
2023/04/23 12:29:07;;;;;;;2.72;2.60;;;24.00;99.90;;;;;;5030611;28;20658;-65
2023/04/23 12:31:35;;;;;;;2.50;2.40;;;23.90;99.90;;;;;;5030629;28;20221;-66
2023/04/23 12:34:03;;;;;;;3.75;3.00;;;23.60;99.90;;;;;;5030884;28;20187;-65
2023/04/23 12:36:30;;;;;;;3.03;2.67;;;23.10;99.90;;;;;;5030867;28;20187;-66